September 24, 2022

Time Code Weather Temp. Visibility Ceiling Wind METAR/SPECI
10:53 pm
V
82 °F 10 mi - 160° 160° 5 kt METAR KAFW 250353Z 16005KT 10SM CLR 28/16 A2993 RMK AO2 SLP118 T02780156
9:53 pm
V
82 °F 10 mi - 170° 170° 4 kt METAR KAFW 250253Z 17004KT 10SM CLR 28/15 A2993 RMK AO2 SLP118 T02830150 52008
8:53 pm
V
86 °F 10 mi - 140° 140° 3 kt METAR KAFW 250153Z 14003KT 10SM CLR 30/14 A2992 RMK AO2 SLP116 T03000144
7:53 pm
V
88 °F 10 mi - 150° 150° 5 kt METAR KAFW 250053Z 15005KT 10SM CLR 31/14 A2991 RMK AO2 SLP112 T03110144
6:53 pm
V
90 °F 10 mi - 160° 160° 9 kt METAR KAFW 242353Z 16009KT 10SM FEW060 32/14 A2990 RMK AO2 SLP110 T03220144 10350 20322 56008
5:53 pm
V
93 °F 10 mi - 170° 170° 12 - 19 kt METAR KAFW 242253Z 17012G19KT 10SM FEW060 34/14 A2991 RMK AO2 SLP110 T03390139
4:53 pm
V
93 °F 10 mi - 150° 150° 10 kt METAR KAFW 242153Z 15010KT 10SM FEW060 34/14 A2991 RMK AO2 SLP111 T03390144
3:53 pm
V
93 °F 10 mi - 170° 170° 8 - 14 kt METAR KAFW 242053Z 17008G14KT 10SM FEW060 34/11 A2993 RMK AO2 SLP116 T03440106 56024
2:53 pm
V
93 °F 10 mi - 200° 200° 8 kt METAR KAFW 241953Z 20008KT 10SM FEW060 34/12 A2995 RMK AO2 SLP123 T03440117
1:53 pm
V
93 °F 10 mi - 160° 160° 3 kt METAR KAFW 241853Z COR 16003KT 10SM FEW060 34/17 A2998 RMK AO2 SLP133 T03390167
12:53 pm
V
91 °F 10 mi - 200° 200° 6 - 15 kt METAR KAFW 241753Z 20006G15KT 10SM FEW060 33/16 A3000 RMK AO2 SLP141 T03280161 10339 20250 58006
11:53 am
V
90 °F 10 mi - 210° 210° 7 kt METAR KAFW 241653Z 21007KT 10SM CLR 32/19 A3002 RMK AO2 SLP149 T03220189
10:53 am
V
88 °F 10 mi - 190° 190° 8 kt METAR KAFW 241553Z 19008KT 180V250 10SM CLR 31/19 A3003 RMK AO2 SLP152 T03060194
9:53 am
V
84 °F 10 mi - 210° 210° 11 kt METAR KAFW 241453Z 21011KT 10SM CLR 29/19 A3002 RMK AO2 SLP148 T02940189 51015
8:53 am
V
81 °F 10 mi - 220° 220° 9 kt METAR KAFW 241353Z 22009KT 10SM CLR 27/18 A3001 RMK AO2 SLP146 T02670183
7:53 am
V
77 °F 10 mi - 200° 200° 7 kt METAR KAFW 241253Z 20007KT 10SM CLR 25/18 A3000 RMK AO2 SLP142 T02500178
6:53 am
V
77 °F 10 mi - 200° 200° 7 kt METAR KAFW 241153Z 20007KT 10SM CLR 25/18 A2998 RMK AO2 SLP133 T02500178 10278 20250 53009
5:53 am
V
79 °F 10 mi - 190° 190° 9 kt METAR KAFW 241053Z 19009KT 10SM FEW090 26/17 A2996 RMK AO2 SLP128 T02610172
4:53 am
V
81 °F 10 mi - 190° 190° 11 kt METAR KAFW 240953Z 19011KT 10SM FEW090 27/17 A2995 RMK AO2 SLP124 T02670167
3:53 am
V
82 °F 10 mi - 190° 190° 11 kt METAR KAFW 240853Z 19011KT 10SM FEW090 28/17 A2995 RMK AO2 SLP122 T02780167 57003
2:53 am
V
82 °F 10 mi - 190° 190° 9 kt METAR KAFW 240753Z 19009KT 10SM FEW095 28/16 A2995 RMK AO2 SLP124 T02780161
1:53 am
V
81 °F 10 mi - 190° 190° 5 kt METAR KAFW 240653Z 19005KT 10SM CLR 27/16 A2995 RMK AO2 SLP125 T02720161
12:53 am
V
79 °F 10 mi - 180° 180° 6 kt METAR KAFW 240553Z 18006KT 10SM SCT095 26/16 A2996 RMK AO2 SLP127 T02610161 10333 20261 403560206 50004

September 23, 2022

Time Code Weather Temp. Visibility Ceiling Wind METAR/SPECI
11:53 pm
V
84 °F 10 mi - 190° 190° 8 kt METAR KAFW 240453Z 19008KT 10SM SCT095 29/16 A2996 RMK AO2 SLP128 T02890161
10:53 pm
V
84 °F 10 mi - 230° 230° 5 kt METAR KAFW 240353Z 23005KT 10SM SCT100 29/16 A2996 RMK AO2 SLP128 T02890156
9:53 pm
V
84 °F 10 mi 10,000 ft 140° 140° 6 kt METAR KAFW 240253Z 14006KT 10SM BKN100 29/16 A2994 RMK AO2 SLP124 T02940156 53016
8:53 pm
V
86 °F 10 mi - 140° 140° 5 kt METAR KAFW 240153Z 14005KT 10SM FEW095 30/15 A2992 RMK AO2 SLP117 T03000150
7:53 pm
V
88 °F 10 mi - 150° 150° 5 kt METAR KAFW 240053Z 15005KT 10SM FEW085 31/14 A2990 RMK AO2 SLP111 T03110144
6:53 pm
V
93 °F 10 mi - 160° 160° 11 kt METAR KAFW 232353Z 16011KT 10SM FEW080 34/14 A2990 RMK AO2 SLP107 T03390139 10356 20322 55009
5:53 pm
V
93 °F 10 mi - 170° 170° 9 kt METAR KAFW 232253Z 17009KT 10SM FEW085 34/14 A2989 RMK AO2 SLP107 T03390144
4:53 pm
V
93 °F 10 mi - 150° 150° 6 kt METAR KAFW 232153Z 15006KT 10SM FEW085 34/14 A2990 RMK AO2 SLP109 T03440144
3:53 pm
V
95 °F 10 mi - 180° 180° 7 - 20 kt METAR KAFW 232053Z 18007G20KT 10SM FEW090 35/14 A2992 RMK AO2 SLP117 T03500144
2:53 pm
V
93 °F 10 mi - 190° 190° 11 - 19 kt METAR KAFW 231953Z AUTO 19011G19KT 10SM CLR 34/15 A2994 RMK AO2 SLP123 T03440150
1:53 pm
V
93 °F 10 mi - 180° 180° 7 kt METAR KAFW 231853Z AUTO 18007KT 10SM CLR 34/17 A2998 RMK AO2 SLP136 T03390167
1:34 pm
V
91 °F 10 mi - 200° 200° 9 kt METAR KAFW 231834Z 20009KT 10SM FEW250 33/17 A2998 RMK SLPNO
12:53 pm
V
91 °F 10 mi - 180° 180° 6 - 14 kt METAR KAFW 231753Z AUTO 18006G14KT 10SM CLR 33/18 A3000 RMK AO2 SLP144 T03280183 10328 20222 58013
11:53 am
V
88 °F 10 mi - 140° 140° 8 kt METAR KAFW 231653Z 14008KT 10SM FEW250 31/20 A3003 RMK SLPNO
10:53 am
V
82 °F 10 mi - 130° 130° 8 kt METAR KAFW 231553Z 13008KT 10SM FEW250 28/20 A3004 RMK SLPNO
9:53 am
V
81 °F 10 mi - 140° 140° 9 kt METAR KAFW 231453Z 14009KT 10SM FEW250 27/20 A3004 RMK SLPNO
8:53 am
V
75 °F 10 mi - 120° 120° 8 kt METAR KAFW 231353Z 12008KT 10SM FEW250 24/19 A3003 RMK SLPNO
7:53 am
V
73 °F 10 mi - 120° 120° 3 kt METAR KAFW 231253Z 12003KT 10SM FEW250 23/18 A3002 RMK SLPNO
6:53 am
V
72 °F 10 mi - 050° 050° 4 kt METAR KAFW 231153Z 05004KT 10SM CLR 22/17 A3000 RMK SLPNO
5:53 am
V
70 °F 10 mi - 010° 010° 4 kt METAR KAFW 231053Z 01004KT 10SM CLR 21/17 A3000 RMK SLPNO
4:53 am
V
72 °F 10 mi - 010° 010° 6 kt METAR KAFW 230953Z 01006KT 10SM CLR 22/17 A3000 RMK SLPNO
3:53 am
V
70 °F 10 mi - 310° 310° 3 kt METAR KAFW 230853Z 31003KT 10SM CLR 21/16 A2999 RMK SLPNO
2:53 am
V
73 °F 10 mi - 030° 030° 6 kt METAR KAFW 230753Z 03006KT 10SM CLR 23/16 A2999 RMK SLPNO
1:53 am
V
72 °F 10 mi - 330° 330° 4 kt METAR KAFW 230653Z 33004KT 10SM CLR 22/14 A2998 RMK SLPNO
12:53 am
V
73 °F 10 mi - 320° 320° 5 kt METAR KAFW 230553Z 32005KT 10SM CLR 23/14 A2998 RMK SLPNO

September 22, 2022

Time Code Weather Temp. Visibility Ceiling Wind METAR/SPECI
11:53 pm
V
82 °F 10 mi - 210° 210° 3 kt METAR KAFW 230453Z 21003KT 10SM CLR 28/13 A2997 RMK SLPNO
10:53 pm
V
81 °F 10 mi - 170° 170° 4 kt METAR KAFW 230353Z 17004KT 10SM CLR 27/14 A2996 RMK SLPNO
9:53 pm
V
84 °F 10 mi - 170° 170° 6 kt METAR KAFW 230253Z 17006KT 10SM CLR 29/12 A2996 RMK SLPNO
8:53 pm
V
86 °F 10 mi - 150° 150° 4 kt METAR KAFW 230153Z 15004KT 10SM FEW080 30/11 A2994 RMK SLPNO
7:53 pm
V
88 °F 10 mi - 140° 140° 3 kt METAR KAFW 230053Z 14003KT 10SM FEW080 31/10 A2992 RMK SLPNO
Older data

We and third parties follow your internet behavior on our website with cookies. If you continue, we assume you agree with our cookie policy. Learn more